Killadysert, Ireland
Current Conditions -  °F | °C
As of 8:30 AM on Monday 20 Oct 2014 (Local Time) from EINN Reporting Station
Drizzle Drizzle  
Wind Chill: 54°   Ceiling: 2600
Heat Index: 54°   Visibility: 6mi
Dew Point: 50°   Wind: 10mph
Humidity: 88%   Direction: 210°SSW
Pressure: 29.91"   Gusts: NA
Location:  52.67°N, 9.11°W
Report Text: EINN 200830Z 21009KT 9999 -DZ FEW008 SCT014 BKN026 12/10 Q1013 NOSIG
Loading
Personal Weather Stations






























Interactive Weather Map
Tropical Storm Tracking
New forecast layout! Learn more

10-Day Weather Forecast

Advertisements
Track Severe Weather on mobile